• Join FlightAware (Why Join?)
  • Login
  • US Flag 
07:02PM EDT


 

Airport Tracker/Info


-or-


 

Live Flight TrackerFlight Track Log ✈ N143DE ✈ 01-May-2013 ✈ KPAH - KMSY

Flight Track Log - Related Links

Times and Time Zones

All times are in EDT time to prevent confusion due to time zone crossing. See the N143DE flight status page for this flight to view local times or setup timezone preferences in your user account.

Time Position Orientation Groundspeed Altitude Reporting Facility
EDT Latitude Longitude Course Direction KTS MPH feet Rate Location/Type
07:29AM 36.9678 -88.7861 186° South 244 281 5,300  Level Memphis Center
07:30AM 36.9261 -88.7919 186° South 188 216 7,400 1,920 Climbing Memphis Center
07:31AM 36.8847 -88.8058 195° South 171 197 9,200 1,800 Climbing Memphis Center
07:32AM 36.8369 -88.8172 191° South 171 197 11,100 1,560 Climbing Memphis Center
07:33AM 36.7892 -88.8283 191° South 171 197 12,400 1,320 Climbing Memphis Center
07:34AM 36.7372 -88.8450 194° South 182 209 13,800 1,320 Climbing Memphis Center
07:35AM 36.6872 -88.8561 190° South 187 215 15,100 1,200 Climbing Memphis Center
07:36AM 36.6353 -88.8700 192° South 187 215 16,300 1,200 Climbing Memphis Center
07:37AM 36.5833 -88.8839 192° South 192 221 17,600 1,140 Climbing Memphis Center
07:38AM 36.5314 -88.9006 194° South 192 221 18,600 960 Climbing Memphis Center
07:39AM 36.4775 -88.9144 192° South 197 227 19,600 900 Climbing Memphis Center
07:40AM 36.4214 -88.9281 191° South 203 234 20,500 900 Climbing Memphis Center
07:41AM 36.3672 -88.9447 194° South 203 234 21,500 900 Climbing Memphis Center
07:42AM 36.3133 -88.9583 192° South 203 234 22,400 900 Climbing Memphis Center
07:43AM 36.2572 -88.9747 193° South 203 234 23,300 900 Climbing Memphis Center
07:44AM 36.1969 -88.9914 193° South 203 234 24,200 840 Climbing Memphis Center
07:45AM 36.1428 -89.0050 191° South 203 234 25,000 720 Climbing Memphis Center
07:46AM 36.0889 -89.0189 192° South 203 234 25,700 600 Climbing Memphis Center
07:47AM 36.0347 -89.0325 191° South 203 234 26,200 240 Climbing Memphis Center
07:48AM 35.9722 -89.0489 192° South 209 241 26,200 -60 Level Memphis Center
07:49AM 35.9078 -89.0653 192° South 228 262 26,100 -60 Descending Memphis Center
07:50AM 35.8433 -89.0842 193° South 239 275 26,100  Level Memphis Center
07:51AM 35.7769 -89.1058 195° South 244 281 26,100  Level Memphis Center
07:52AM 35.7125 -89.1272 195° South 244 281 26,100  Level Memphis Center
07:53AM 35.6542 -89.1408 191° South 238 274 26,100  Level Memphis Center
07:54AM 35.5836 -89.1597 192° South 238 274 26,100  Level Memphis Center
07:55AM 35.5189 -89.1761 192° South 238 274 26,100  Level Memphis Center
07:56AM 35.4544 -89.1897 190° South 238 274 26,100  Level Memphis Center
07:57AM 35.3919 -89.2083 194° South 238 274 26,100  Level Memphis Center
07:58AM 35.3275 -89.2269 193° South 238 274 26,100  Level Memphis Center
07:59AM 35.2653 -89.2433 192° South 238 274 26,100  Level Memphis Center
08:00AM 35.2006 -89.2619 193° South 238 274 26,100  Level Memphis Center
08:01AM 35.1383 -89.2778 192° South 238 274 26,100  Level Memphis Center
08:02AM 35.0778 -89.2939 192° South 238 274 26,100  Level Memphis Center
08:03AM 35.0133 -89.3100 192° South 238 274 26,100  Level Memphis Center
08:04AM 34.9489 -89.3258 191° South 238 274 26,100  Level Memphis Center
08:05AM 34.8822 -89.3419 191° South 238 274 26,100  Level Memphis Center
08:06AM 34.8175 -89.3606 193° South 238 274 26,100  Level Memphis Center
08:07AM 34.7428 -89.3817 193° South 238 274 26,100  Level Memphis Center
08:08AM 34.6781 -89.4000 193° South 238 274 26,100  Level Memphis Center
08:09AM 34.6114 -89.4183 193° South 238 274 26,100  Level Memphis Center
08:10AM 34.5447 -89.4342 191° South 243 280 26,100  Level Memphis Center
08:11AM 34.4783 -89.4528 193° South 243 280 26,100  Level Memphis Center
08:12AM 34.4117 -89.4708 193° South 243 280 26,100  Level Memphis Center
08:13AM 34.3450 -89.4892 193° South 243 280 26,100  Level Memphis Center
08:14AM 34.2844 -89.5050 192° South 238 274 26,100  Level Memphis Center
08:15AM 34.2219 -89.5231 193° South 238 274 26,100  Level Memphis Center
08:16AM 34.1533 -89.5389 191° South 238 274 26,100  Level Memphis Center
08:17AM 34.0908 -89.5544 192° South 238 274 26,100  Level Memphis Center
08:18AM 34.0261 -89.5728 193° South 238 274 26,200  Climbing Memphis Center
08:19AM 33.9617 -89.5883 191° South 238 274 26,200  Level Memphis Center
08:20AM 33.8908 -89.6089 194° South 238 274 26,200  Level Memphis Center
08:21AM 33.8242 -89.6244 191° South 238 274 26,200  Level Memphis Center
08:22AM 33.7594 -89.6450 195° South 238 274 26,200  Level Memphis Center
08:23AM 33.6950 -89.6631 193° South 238 274 26,200  Level Memphis Center
08:24AM 33.6281 -89.6761 189° South 238 274 26,200  Level Memphis Center
08:25AM 33.5636 -89.6942 193° South 238 274 26,200  Level Memphis Center
08:26AM 33.5011 -89.7119 193° South 238 274 26,200  Level Memphis Center
08:27AM 33.4364 -89.7275 191° South 238 274 26,200  Level Memphis Center
08:28AM 33.3697 -89.7453 193° South 238 274 26,200  Level Memphis Center
08:29AM 33.3050 -89.7606 191° South 238 274 26,200  Level Memphis Center
08:30AM 33.2406 -89.7786 193° South 238 274 26,200  Level Memphis Center
08:31AM 33.1736 -89.7939 191° South 238 274 26,200  Level Memphis Center
08:32AM 33.1133 -89.8117 194° South 238 274 26,200  Level Memphis Center
08:33AM 33.0486 -89.8269 191° South 238 274 26,200  Level Memphis Center
08:34AM 32.9881 -89.8372 188° South 243 280 26,200  Level Memphis Center
08:35AM 32.9150 -89.8575 193° South 237 273 26,200  Level Memphis Center
08:36AM 32.8608 -89.8725 193° South 237 273 26,200  Level Memphis Center
08:37AM 32.7964 -89.8903 193° South 237 273 26,200  Level Memphis Center
08:38AM 32.7275 -89.9078 192° South 237 273 26,200  Level Memphis Center
08:39AM 32.6628 -89.9231 191° South 237 273 26,200  Level Memphis Center
08:40AM 32.6003 -89.9381 191° South 237 273 26,200  Level Memphis Center
08:41AM 32.5336 -89.9556 192° South 242 278 26,200  Level Memphis Center
08:42AM 32.4647 -89.9733 192° South 242 278 26,200  Level Memphis Center
08:43AM 32.4000 -89.9883 191° South 247 284 26,200  Level Memphis Center
08:44AM 32.3333 -90.0058 193° South 247 284 26,200  Level Memphis Center
08:45AM 32.2664 -90.0233 192° South 247 284 26,200  Level Memphis Center
08:46AM 32.1997 -90.0381 191° South 247 284 26,200  Level Memphis Center
08:47AM 32.1350 -90.0556 193° South 242 278 26,200  Level Memphis Center
08:48AM 32.0683 -90.0706 191° South 237 273 26,200  Level Memphis Center
08:49AM 32.0036 -90.0856 191° South 237 273 26,200  Level Memphis Center
08:50AM 31.9389 -90.1028 193° South 237 273 26,200  Level Memphis Center
08:52AM 31.7933 -90.1381 192° South 244 281 26,200  Level Houston Center
08:54AM 31.7283 -90.1542 192° South 240 276 26,200  Level Houston Center
08:55AM 31.6622 -90.1719 193° South 241 277 26,200  Level Houston Center
08:56AM 31.5961 -90.1875 191° South 241 277 26,200 -60 Level Houston Center
08:57AM 31.5303 -90.2033 192° South 242 278 26,100 -660 Descending Houston Center
08:58AM 31.4608 -90.2183 190° South 251 289 24,900 -1,260 Descending Houston Center
08:59AM 31.3711 -90.2414 192° South 271 312 23,600 -1,260 Descending Houston Center
09:00AM 31.2969 -90.2597 192° South 272 313 22,400 -1,380 Descending Houston Center
09:01AM 31.2242 -90.2539 176° South 266 306 20,800 -1,500 Descending Houston Center
09:02AM 31.1506 -90.2472 176° South 263 303 19,400 -1,380 Descending Houston Center
09:03AM 31.0772 -90.2408 176° South 267 307 18,000 -1,320 Descending Houston Center
09:04AM 31.0028 -90.2358 177° South 266 306 16,700 -1,320 Descending Houston Center
09:05AM 30.9294 -90.2306 176° South 265 305 15,400 -1,380 Descending Houston Center
09:06AM 30.8431 -90.2247 177° South 259 298 13,900 -1,440 Descending Houston Center
09:06AM 30.8172 -90.2272 185° South 255 293 13,400 -1,140 Descending Houston Center
09:07AM 30.7733 -90.2200 172° South 253 291 12,800 -1,020 Descending Houston Center
09:07AM 30.7481 -90.2178 176° South 246 283 12,400 -900 Descending Houston Center
09:08AM 30.7089 -90.2281 193° South 241 277 11,900 -900 Descending Houston Center
09:09AM 30.6483 -90.2603 205° Southwest 239 275 10,900 -1,020 Descending Houston Center
09:10AM 30.5878 -90.2928 205° Southwest 239 275 9,900 -1,020 Descending Houston Center
09:11AM 30.5256 -90.3225 202° Southwest 241 277 8,800 -1,080 Descending Houston Center
09:12AM 30.4628 -90.3547 204° Southwest 245 282 7,700 -1,140 Descending Houston Center
09:13AM 30.3931 -90.3936 206° Southwest 239 275 6,500 -840 Descending Houston Center
09:14AM 30.3411 -90.4242 207° Southwest 227 261 6,000 -600 Descending Houston Center
09:15AM 30.2933 -90.4528 207° Southwest 211 243 5,300 -720 Descending Houston Center
09:16AM 30.2458 -90.4794 206° Southwest 200 230 4,600 -600 Descending Houston Center
09:17AM 30.1967 -90.4931 193° South 189 217 4,100 -300 Descending Houston Center
09:18AM 30.1442 -90.4972 184° South 156 180 4,000 -480 Descending Houston Center
09:19AM 30.0942 -90.5014 184° South 166 191 3,200 -900 Descending Houston Center
09:20AM 30.0542 -90.4758 151° Southeast 178 205 2,200 -540 Descending Houston Center
09:21AM 30.0333 -90.4347 120° Southeast 166 191 2,100 -120 Descending Houston Center
09:22AM 30.0256 -90.3967 103° East 145 167 2,000 -360 Descending Houston Center
09:23AM 30.0167 -90.3625 107° East 127 146 1,400 -600 Descending Houston Center
09:24AM 30.0083 -90.3247 104° East 122 140 800 -660 Descending Houston Center
09:25AM 30.0028 -90.3056 109° East 122 140 600 -120 Descending Houston Center
09:25AM 30.0003 -90.2875 99° East 122 140 700 120 Climbing Houston Center